TimeMST,TemperatureF,Dew PointF,Humidity,Sea Level PressureIn,VisibilityMPH,Wind Direction,Wind SpeedMPH,Gust SpeedMPH,PrecipitationIn,Events,Conditions,WindDirDegrees,DateUTC
12:53 AM,39.9,34.0,79,30.22,10.0,WNW,10.4,-,N/A,,Clear,290,2012-11-05 07:53:00
1:53 AM,41.0,33.8,76,30.23,10.0,NW,11.5,-,N/A,,Mostly Cloudy,310,2012-11-05 08:53:00
2:53 AM,41.0,33.8,76,30.23,10.0,NW,13.8,-,N/A,,Clear,310,2012-11-05 09:53:00
3:53 AM,37.9,33.1,83,30.23,10.0,NW,9.2,-,N/A,,Clear,320,2012-11-05 10:53:00
4:53 AM,37.4,32.0,81,30.23,10.0,NW,12.7,-,N/A,,Clear,310,2012-11-05 11:53:00
5:53 AM,34.0,30.9,89,30.25,10.0,NW,8.1,-,N/A,,Clear,320,2012-11-05 12:53:00
6:53 AM,30.9,28.0,89,30.26,10.0,North,5.8,-,N/A,,Clear,360,2012-11-05 13:53:00
7:53 AM,37.9,33.1,83,30.25,10.0,North,4.6,-,N/A,,Clear,350,2012-11-05 14:53:00
8:53 AM,44.1,34.0,68,30.25,10.0,North,6.9,-,N/A,,Clear,10,2012-11-05 15:53:00
9:53 AM,48.0,34.0,58,30.24,10.0,NNW,3.5,-,N/A,,Clear,340,2012-11-05 16:53:00
10:53 AM,51.1,34.0,52,30.22,10.0,NW,4.6,-,N/A,,Overcast,320,2012-11-05 17:53:00
11:53 AM,54.0,33.1,45,30.17,10.0,WSW,4.6,-,N/A,,Overcast,240,2012-11-05 18:53:00
12:53 PM,57.0,33.1,40,30.13,10.0,Calm,Calm,-,N/A,,Scattered Clouds,0,2012-11-05 19:53:00
1:53 PM,59.0,30.9,35,30.09,10.0,Calm,Calm,-,N/A,,Clear,0,2012-11-05 20:53:00
2:53 PM,59.0,30.9,35,30.07,10.0,Calm,Calm,-,N/A,,Clear,0,2012-11-05 21:53:00
3:53 PM,57.9,33.1,39,30.07,10.0,Calm,Calm,-,N/A,,Clear,0,2012-11-05 22:53:00
4:53 PM,48.0,32.0,54,30.08,10.0,SSE,5.8,-,N/A,,Clear,150,2012-11-05 23:53:00
5:53 PM,45.0,32.0,60,30.10,10.0,SE,5.8,-,N/A,,Clear,130,2012-11-06 00:53:00
6:53 PM,45.0,32.0,60,30.10,10.0,South,5.8,-,N/A,,Clear,180,2012-11-06 01:53:00
7:53 PM,44.1,32.0,63,30.09,10.0,Calm,Calm,-,N/A,,Clear,0,2012-11-06 02:53:00
8:53 PM,41.0,32.0,70,30.08,10.0,WSW,5.8,-,N/A,,Clear,240,2012-11-06 03:53:00
9:53 PM,43.0,33.1,68,30.05,10.0,West,8.1,-,N/A,,Clear,260,2012-11-06 04:53:00
10:53 PM,45.0,33.1,63,30.04,10.0,WNW,9.2,-,N/A,,Clear,300,2012-11-06 05:53:00
11:53 PM,46.9,34.0,61,30.04,10.0,WNW,10.4,-,N/A,,Clear,300,2012-11-06 06:53:00